Time;durP1;ratioP1;P1;durP2;ratioP2;P2;SDS_P1;SDS_P2;PMS_P1;PMS_P2;Temp;Humidity;BMP_temperature;BMP_pressure;BME280_temperature;BME280_humidity;BME280_pressure;Samples;Min_cycle;Max_cycle;Signal;HPM_P1;HPM_P2
2023/04/28 03:01:48;;;;;;;;;;;19.30;51.40;;;;;;5364490;22;45931;-63
2023/04/28 03:04:14;;;;;;;;;;;19.30;51.40;;;;;;4979616;28;45110;-60
2023/04/28 03:06:39;;;;;;;;;;;19.30;51.50;;;;;;4980744;28;45317;-63
2023/04/28 03:09:05;;;;;;;;;;;19.20;51.40;;;;;;4966584;28;45218;-61
2023/04/28 03:11:31;;;;;;;;;;;19.20;51.50;;;;;;4980131;28;44999;-60
2023/04/28 03:13:57;;;;;;;;;;;19.20;51.50;;;;;;4979265;28;47266;-61
2023/04/28 03:16:22;;;;;;;;;;;19.20;51.50;;;;;;4972162;28;45493;-62
2023/04/28 03:18:48;;;;;;;;;;;19.20;51.50;;;;;;4977403;28;45300;-61
2023/04/28 03:21:13;;;;;;;;;;;19.20;51.40;;;;;;4975591;28;45291;-61
2023/04/28 03:23:39;;;;;;;;;;;19.20;51.40;;;;;;4979310;28;46806;-61
2023/04/28 03:26:05;;;;;;;;;;;19.20;51.50;;;;;;4976616;28;45449;-60
2023/04/28 03:28:30;;;;;;;;;;;19.20;51.50;;;;;;4957723;28;45766;-61
2023/04/28 03:30:56;;;;;;;;;;;19.20;51.50;;;;;;4957438;28;44725;-60
2023/04/28 03:33:21;;;;;;;;;;;19.20;51.50;;;;;;4980580;28;45660;-61
2023/04/28 03:35:47;;;;;;;;;;;19.20;51.50;;;;;;4973373;28;45766;-60
2023/04/28 03:38:13;;;;;;;;;;;19.20;51.50;;;;;;4959066;28;45490;-62
2023/04/28 03:40:39;;;;;;;;;;;19.20;51.50;;;;;;4969990;28;45317;-61
2023/04/28 03:43:04;;;;;;;;;;;19.20;51.50;;;;;;4979544;28;46736;-61
2023/04/28 03:45:30;;;;;;;;;;;19.20;51.50;;;;;;4970939;28;45067;-61
2023/04/28 03:47:55;;;;;;;;;;;19.20;51.50;;;;;;4963217;28;45237;-60
2023/04/28 03:50:21;;;;;;;;;;;19.20;51.50;;;;;;4978028;28;45085;-61
2023/04/28 03:52:46;;;;;;;;;;;19.20;51.50;;;;;;4976853;28;45424;-61
2023/04/28 03:55:12;;;;;;;;;;;19.20;51.50;;;;;;4965229;28;45299;-60
2023/04/28 03:57:38;;;;;;;;;;;19.20;51.50;;;;;;4946014;28;45216;-60
2023/04/28 04:00:04;;;;;;;;;;;19.10;51.50;;;;;;4956937;28;46273;-61
2023/04/28 04:02:30;;;;;;;;;;;19.20;51.50;;;;;;4954109;28;46867;-61
2023/04/28 04:04:55;;;;;;;;;;;19.20;51.50;;;;;;4987637;28;45026;-61
2023/04/28 04:07:21;;;;;;;;;;;19.10;51.50;;;;;;4972525;28;45530;-60
2023/04/28 04:09:46;;;;;;;;;;;19.20;51.50;;;;;;4980064;28;45246;-61
2023/04/28 04:12:12;;;;;;;;;;;19.20;51.50;;;;;;4979023;28;46015;-61
2023/04/28 04:14:37;;;;;;;;;;;19.20;51.60;;;;;;4985665;28;45171;-61
2023/04/28 04:17:03;;;;;;;;;;;19.20;51.50;;;;;;4959858;28;45180;-61
2023/04/28 04:19:29;;;;;;;;;;;19.10;51.50;;;;;;4950289;28;44907;-61
2023/04/28 04:21:55;;;;;;;;;;;19.20;51.60;;;;;;4961522;28;45350;-61
2023/04/28 04:24:20;;;;;;;;;;;19.10;51.50;;;;;;4984849;28;46307;-60
2023/04/28 04:26:46;;;;;;;;;;;19.10;51.50;;;;;;4973441;28;45319;-62
2023/04/28 04:29:11;;;;;;;;;;;19.10;51.50;;;;;;4979799;28;45197;-61
2023/04/28 04:31:37;;;;;;;;;;;19.10;51.50;;;;;;4968109;28;45401;-61
2023/04/28 04:34:02;;;;;;;;;;;19.10;51.50;;;;;;4973819;28;45242;-60
2023/04/28 04:36:29;;;;;;;;;;;19.10;51.60;;;;;;4982446;28;45098;-61
2023/04/28 04:38:54;;;;;;;;;;;19.10;51.50;;;;;;4972400;28;45484;-61
2023/04/28 04:41:20;;;;;;;;;;;19.10;51.60;;;;;;4955387;28;46036;-62
2023/04/28 04:43:46;;;;;;;;;;;19.10;51.50;;;;;;4970914;28;44926;-62
2023/04/28 04:46:12;;;;;;;;;;;19.10;51.50;;;;;;4976867;28;45231;-61
2023/04/28 04:48:37;;;;;;;;;;;19.10;51.60;;;;;;4966001;28;45115;-62
2023/04/28 04:51:03;;;;;;;;;;;19.10;51.60;;;;;;4980787;28;46536;-61
2023/04/28 04:53:28;;;;;;;;;;;19.10;51.50;;;;;;4988805;28;45917;-61
2023/04/28 04:55:54;;;;;;;;;;;19.10;51.60;;;;;;4970406;28;45376;-62
2023/04/28 04:58:19;;;;;;;;;;;19.10;51.50;;;;;;4990290;28;44767;-62
2023/04/28 05:00:45;;;;;;;;;;;19.10;51.60;;;;;;4975775;28;45294;-61
2023/04/28 05:03:10;;;;;;;;;;;19.10;51.60;;;;;;4968232;28;45313;-61
2023/04/28 05:05:36;;;;;;;;;;;19.10;51.60;;;;;;4973910;28;45065;-65
2023/04/28 05:08:02;;;;;;;;;;;19.10;51.60;;;;;;4988582;28;45639;-62
2023/04/28 05:10:28;;;;;;;;;;;19.00;51.50;;;;;;4975239;28;45898;-61
2023/04/28 05:12:53;;;;;;;;;;;19.10;51.60;;;;;;4984595;28;45145;-62
2023/04/28 05:15:19;;;;;;;;;;;19.10;51.60;;;;;;4967180;28;45025;-62
2023/04/28 05:17:44;;;;;;;;;;;19.00;51.50;;;;;;4980803;28;45270;-60
2023/04/28 05:20:10;;;;;;;;;;;19.10;51.60;;;;;;4961255;28;45574;-62
2023/04/28 05:22:36;;;;;;;;;;;19.00;51.50;;;;;;4963081;28;45102;-63
2023/04/28 05:25:01;;;;;;;;;;;19.00;51.50;;;;;;4985044;28;45338;-60
2023/04/28 05:27:27;;;;;;;;;;;19.00;51.50;;;;;;4973500;28;45345;-62
2023/04/28 05:29:52;;;;;;;;;;;19.00;51.50;;;;;;4965199;28;46370;-61
2023/04/28 05:32:18;;;;;;;;;;;19.00;51.60;;;;;;4973663;28;45389;-60
2023/04/28 05:34:44;;;;;;;;;;;19.00;51.60;;;;;;4952880;28;45012;-62
2023/04/28 05:37:09;;;;;;;;;;;19.00;51.50;;;;;;4976514;28;45092;-62
2023/04/28 05:39:35;;;;;;;;;;;19.00;51.60;;;;;;4966165;28;47084;-61
2023/04/28 05:42:00;;;;;;;;;;;19.00;51.60;;;;;;4959175;28;44898;-62
2023/04/28 05:44:26;;;;;;;;;;;19.00;51.60;;;;;;4962783;28;45064;-61
2023/04/28 05:46:51;;;;;;;;;;;19.00;51.60;;;;;;4971406;28;45514;-62
2023/04/28 05:49:17;;;;;;;;;;;19.00;51.70;;;;;;4979804;28;45407;-62
2023/04/28 05:51:43;;;;;;;;;;;19.00;51.60;;;;;;4979378;28;45059;-62
2023/04/28 05:54:09;;;;;;;;;;;19.00;51.60;;;;;;4981516;28;45005;-61
2023/04/28 05:56:34;;;;;;;;;;;19.00;51.60;;;;;;4982544;28;44981;-61
2023/04/28 05:59:03;;;;;;;;;;;19.00;51.40;;;;;;4983346;28;44863;-60
2023/04/28 06:01:31;;;;;;;;;;;19.00;50.90;;;;;;4953784;28;45338;-62
2023/04/28 06:03:57;;;;;;;;;;;18.90;50.40;;;;;;4983299;28;45309;-58
2023/04/28 06:06:23;;;;;;;;;;;18.90;50.50;;;;;;4949872;28;45234;-58
2023/04/28 06:08:49;;;;;;;4.88;2.55;;;18.80;50.50;;;;;;4983208;28;46346;-61
2023/04/28 06:11:14;;;;;;;4.00;2.67;;;18.70;50.60;;;;;;4972697;28;45140;-61
2023/04/28 06:13:40;;;;;;;3.38;2.80;;;18.70;50.60;;;;;;4960328;28;45050;-61
2023/04/28 06:16:06;;;;;;;6.57;3.00;;;18.70;50.60;;;;;;4955741;28;44994;-61
2023/04/28 06:18:32;;;;;;;7.07;2.95;;;18.80;50.60;;;;;;4977004;28;45852;-61
2023/04/28 06:20:57;;;;;;;3.95;2.65;;;18.80;50.50;;;;;;4952281;28;45335;-62
2023/04/28 06:23:23;;;;;;;3.88;2.50;;;18.90;50.60;;;;;;4983888;28;45048;-61
2023/04/28 06:25:49;;;;;;;4.68;2.60;;;18.90;50.50;;;;;;4981163;28;45502;-60
2023/04/28 06:28:14;;;;;;;4.50;2.40;;;18.90;50.60;;;;;;4956393;28;46045;-61
2023/04/28 06:30:40;;;;;;;2.88;2.08;;;18.90;50.60;;;;;;4971830;28;45015;-62
2023/04/28 06:33:06;;;;;;;3.80;2.10;;;18.90;50.60;;;;;;4946515;28;44793;-62
2023/04/28 06:35:35;;;;;;;5.03;2.42;;;19.00;50.80;;;;;;4954758;28;45220;-62
2023/04/28 06:38:01;;;;;;;2.92;1.80;;;19.10;50.60;;;;;;4961893;28;46234;-61
2023/04/28 06:40:27;;;;;;;3.40;1.73;;;19.30;50.40;;;;;;4958697;28;45464;-60
2023/04/28 06:42:52;;;;;;;4.40;2.00;;;19.40;50.20;;;;;;4965597;28;45462;-60
2023/04/28 06:45:21;;;;;;;3.30;1.50;;;19.60;50.00;;;;;;4942820;28;45066;-61
2023/04/28 06:47:46;;;;;;;6.68;1.67;;;19.70;49.90;;;;;;4973726;28;45238;-61
2023/04/28 06:50:12;;;;;;;3.10;1.55;;;19.90;49.70;;;;;;4956054;28;44836;-61
2023/04/28 06:52:40;;;;;;;4.25;1.55;;;20.00;49.50;;;;;;4975137;28;44925;-59
2023/04/28 06:55:08;;;;;;;5.57;1.30;;;20.10;49.40;;;;;;4958103;28;45315;-60
2023/04/28 06:57:34;;;;;;;2.33;1.38;;;20.30;49.40;;;;;;4962242;28;45479;-60
2023/04/28 06:59:59;;;;;;;2.30;1.55;;;20.40;49.20;;;;;;4982462;28;45022;-60
2023/04/28 07:02:25;;;;;;;2.15;1.27;;;20.50;49.10;;;;;;4968997;28;45157;-59
2023/04/28 07:04:51;;;;;;;3.58;1.40;;;20.60;49.10;;;;;;4976936;28;44959;-61
2023/04/28 07:07:17;;;;;;;3.30;1.42;;;20.70;49.00;;;;;;4960760;28;45447;-60
2023/04/28 07:09:42;;;;;;;2.47;1.30;;;20.70;49.00;;;;;;4944561;28;45046;-60
2023/04/28 07:12:08;;;;;;;1.40;1.17;;;20.80;48.90;;;;;;4963506;28;45314;-61
2023/04/28 07:14:34;;;;;;;;;;;20.90;49.00;;;;;;4961542;28;45389;-58
2023/04/28 07:16:59;;;;;;;;;;;20.90;48.70;;;;;;4953535;28;45035;-59
2023/04/28 07:19:25;;;;;;;;;;;21.00;48.70;;;;;;4977885;28;45009;-61
2023/04/28 07:21:50;;;;;;;;;;;21.10;48.70;;;;;;4969944;28;45092;-60
2023/04/28 07:24:16;;;;;;;;;;;21.10;48.70;;;;;;4983013;28;44951;-59
2023/04/28 07:26:42;;;;;;;;;;;21.20;48.60;;;;;;4972120;28;45214;-62
2023/04/28 07:29:07;;;;;;;;;;;21.20;48.60;;;;;;4952542;28;45374;-60
2023/04/28 07:31:33;;;;;;;;;;;21.30;48.60;;;;;;4961841;28;45318;-60
2023/04/28 07:33:59;;;;;;;;;;;21.40;48.50;;;;;;4977677;28;45007;-59
2023/04/28 07:36:25;;;;;;;;;;;21.40;48.50;;;;;;4962969;28;45243;-61
2023/04/28 07:38:51;;;;;;;;;;;21.40;48.50;;;;;;4975813;28;44714;-63
2023/04/28 07:41:17;;;;;;;;;;;21.50;48.40;;;;;;4960843;28;45323;-61
2023/04/28 07:43:43;;;;;;;;;;;21.60;48.40;;;;;;4983181;28;44827;-61
2023/04/28 07:46:08;;;;;;;;;;;21.60;48.40;;;;;;4961642;28;48003;-59
2023/04/28 07:48:34;;;;;;;;;;;21.70;48.30;;;;;;4964255;28;45182;-59
2023/04/28 07:51:00;;;;;;;;;;;21.80;48.30;;;;;;4962060;28;45301;-61
2023/04/28 07:53:25;;;;;;;;;;;21.80;48.20;;;;;;4970084;28;45003;-59
2023/04/28 07:55:51;;;;;;;;;;;21.90;48.10;;;;;;4976989;28;45582;-60
2023/04/28 07:58:16;;;;;;;;;;;22.00;48.10;;;;;;4967831;28;45246;-60
2023/04/28 08:00:42;;;;;;;;;;;22.00;48.00;;;;;;4977854;28;45290;-60
2023/04/28 08:03:07;;;;;;;;;;;22.10;48.00;;;;;;4981192;28;44951;-60
2023/04/28 08:05:33;;;;;;;;;;;22.10;48.00;;;;;;4978579;28;46139;-60
2023/04/28 08:07:58;;;;;;;;;;;22.20;47.90;;;;;;4986265;28;44942;-60
2023/04/28 08:10:25;;;;;;;;;;;22.30;47.90;;;;;;4966781;28;45295;-59
2023/04/28 08:12:51;;;;;;;;;;;22.30;47.80;;;;;;4962727;28;45244;-59
2023/04/28 08:15:16;;;;;;;;;;;22.40;47.80;;;;;;4974095;28;45178;-61
2023/04/28 08:17:42;;;;;;;;;;;22.40;47.80;;;;;;4985542;28;45000;-59
2023/04/28 08:20:08;;;;;;;;;;;22.50;47.70;;;;;;4981206;28;45054;-60
2023/04/28 08:22:34;;;;;;;;;;;22.50;47.60;;;;;;4966810;28;46146;-61
2023/04/28 08:25:00;;;;;;;;;;;22.60;47.60;;;;;;4983354;28;46312;-59
2023/04/28 08:27:25;;;;;;;;;;;22.60;47.50;;;;;;4963899;28;45289;-60
2023/04/28 08:29:51;;;;;;;;;;;22.60;47.50;;;;;;4987703;28;45195;-59
2023/04/28 08:32:17;;;;;;;;;;;22.70;47.60;;;;;;4954312;28;45245;-60
2023/04/28 08:34:42;;;;;;;;;;;22.70;47.50;;;;;;4987665;28;45119;-60
2023/04/28 08:37:08;;;;;;;;;;;22.80;47.40;;;;;;4980160;28;45436;-60
2023/04/28 08:39:34;;;;;;;;;;;22.80;47.40;;;;;;4963520;28;45277;-60
2023/04/28 08:42:05;;;;;;;;;;;22.90;47.40;;;;;;4980705;28;45319;-59
2023/04/28 08:44:33;;;;;;;;;;;22.90;47.40;;;;;;4983299;28;45278;-61
2023/04/28 08:46:59;;;;;;;;;;;22.90;47.40;;;;;;4957557;28;45316;-60
2023/04/28 08:49:26;;;;;;;;;;;23.00;47.40;;;;;;4953026;28;44916;-59
2023/04/28 08:51:56;;;;;;;;;;;23.00;47.30;;;;;;4965471;28;45337;-59
2023/04/28 08:54:22;;;;;;;;;;;23.00;47.30;;;;;;4983449;28;46147;-60
2023/04/28 08:56:47;;;;;;;;;;;23.10;47.30;;;;;;4978213;28;45063;-60
2023/04/28 08:59:13;;;;;;;;;;;23.20;47.20;;;;;;4967287;28;45099;-61
2023/04/28 09:01:38;;;;;;;;;;;23.20;47.10;;;;;;4956458;28;45090;-60
2023/04/28 09:04:04;;;;;;;;;;;23.20;47.10;;;;;;4968711;28;47038;-60
2023/04/28 09:06:36;;;;;;;;;;;23.20;47.00;;;;;;4975714;28;45209;-57
2023/04/28 09:09:20;;;;;;;;;;;23.30;47.10;;;;;;4961674;28;45233;-59
2023/04/28 09:11:58;;;;;;;;;;;23.30;47.10;;;;;;4977029;28;45237;-60
2023/04/28 09:14:24;;;;;;;;;;;23.30;47.10;;;;;;4982470;28;45572;-60
2023/04/28 09:16:50;;;;;;;;;;;23.40;47.10;;;;;;4978946;28;45138;-60
2023/04/28 09:19:16;;;;;;;;;;;23.40;47.00;;;;;;4979637;28;45029;-61
2023/04/28 09:21:45;;;;;;;;;;;23.50;47.10;;;;;;4961575;28;44910;-61
2023/04/28 09:24:14;;;;;;;;;;;23.50;47.00;;;;;;4962860;28;46258;-58
2023/04/28 09:26:52;;;;;;;;;;;23.50;47.00;;;;;;4946118;28;45323;-60
2023/04/28 09:29:17;;;;;;;;;;;23.50;47.00;;;;;;4983894;28;44801;-61
2023/04/28 09:31:43;;;;;;;;;;;23.60;47.00;;;;;;4979405;28;45192;-61
2023/04/28 09:34:10;;;;;;;;;;;23.60;46.90;;;;;;4979846;28;45012;-60
2023/04/28 09:36:36;;;;;;;;;;;23.60;46.90;;;;;;4977415;28;45291;-60
2023/04/28 09:39:02;;;;;;;;;;;23.70;46.90;;;;;;4987836;28;45283;-60
2023/04/28 09:41:34;;;;;;;;;;;23.70;46.80;;;;;;4981374;28;44990;-60
2023/04/28 09:44:08;;;;;;;;;;;23.70;46.70;;;;;;4981949;28;46153;-61
2023/04/28 09:46:34;;;;;;;;;;;23.70;46.70;;;;;;4967839;28;45307;-60
2023/04/28 09:49:00;;;;;;;;;;;23.80;46.80;;;;;;4983322;28;45104;-60
2023/04/28 09:51:25;;;;;;;;;;;23.80;46.70;;;;;;4978968;28;45678;-60
2023/04/28 09:53:51;;;;;;;;;;;23.90;46.70;;;;;;4969682;28;46521;-61
2023/04/28 09:56:19;;;;;;;;;;;23.90;46.70;;;;;;4964986;28;45127;-61
2023/04/28 09:58:45;;;;;;;;;;;23.90;46.70;;;;;;4990412;28;44967;-60
2023/04/28 10:01:11;;;;;;;;;;;24.00;46.70;;;;;;4957777;28;45040;-60
2023/04/28 10:03:37;;;;;;;;;;;24.00;46.70;;;;;;4970268;28;45715;-60
2023/04/28 10:06:03;;;;;;;;;;;24.00;46.70;;;;;;4977357;28;45093;-60
2023/04/28 10:08:28;;;;;;;;;;;24.00;46.60;;;;;;4984538;28;45259;-59
2023/04/28 10:10:55;;;;;;;;;;;24.10;46.70;;;;;;4980960;28;45252;-60
2023/04/28 10:13:21;;;;;;;;;;;24.10;46.60;;;;;;4963844;28;45179;-61
2023/04/28 10:15:47;;;;;;;;;;;24.10;46.60;;;;;;4975294;28;45024;-60
2023/04/28 10:18:16;;;;;;;;;;;24.00;46.60;;;;;;4953815;28;45238;-60
2023/04/28 10:20:42;;;;;;;;;;;23.90;46.50;;;;;;4960249;28;45245;-61
2023/04/28 10:23:27;;;;;;;;;;;23.90;46.70;;;;;;4966590;28;45021;-60
2023/04/28 10:25:53;;;;;;;;;;;23.90;46.80;;;;;;4975947;28;44689;-61
2023/04/28 10:28:19;;;;;;;;;;;23.80;46.90;;;;;;4956708;28;45369;-61
2023/04/28 10:31:05;;;;;;;;;;;23.80;47.10;;;;;;4960445;28;44977;-60
2023/04/28 10:33:31;;;;;;;;;;;23.70;47.20;;;;;;4988083;28;46258;-60
2023/04/28 10:35:57;;;;;;;;;;;23.70;47.30;;;;;;4965058;28;45302;-61
2023/04/28 10:38:22;;;;;;;;;;;23.60;47.40;;;;;;4987671;28;45028;-61
2023/04/28 10:40:48;;;;;;;;;;;23.50;47.40;;;;;;4969113;28;44797;-61
2023/04/28 10:43:14;;;;;;;;;;;23.50;47.50;;;;;;4966322;28;46191;-62
2023/04/28 10:45:51;;;;;;;;;;;23.50;47.60;;;;;;4979328;28;46039;-61
2023/04/28 10:48:38;;;;;;;;;;;23.40;47.60;;;;;;4983171;28;45743;-62
2023/04/28 10:51:04;;;;;;;;;;;23.40;47.70;;;;;;4975365;28;44769;-61
2023/04/28 10:53:51;;;;;;;;;;;23.30;47.80;;;;;;4990004;28;46151;-61
2023/04/28 10:56:18;;;;;;;;;;;23.30;47.80;;;;;;4982126;28;45045;-61
2023/04/28 10:58:48;;;;;;;;;;;23.30;47.80;;;;;;4990283;28;45022;-62
2023/04/28 11:01:23;;;;;;;;;;;23.20;47.80;;;;;;4977625;28;44977;-63
2023/04/28 11:03:50;;;;;;;;;;;23.20;47.90;;;;;;4983005;28;46232;-62
2023/04/28 11:06:28;;;;;;;;;;;23.20;48.00;;;;;;4962112;28;45267;-61
2023/04/28 11:08:55;;;;;;;;;;;23.20;48.00;;;;;;4984297;28;45400;-62
2023/04/28 11:11:21;;;;;;;;;;;23.10;48.00;;;;;;4972969;28;45245;-62
2023/04/28 11:13:47;;;;;;;;;;;23.10;48.00;;;;;;4983842;28;45870;-62
2023/04/28 11:16:15;;;;;;;;;;;23.00;48.70;;;;;;4963234;28;45276;-62
2023/04/28 11:18:46;;;;;;;;;;;23.00;48.10;;;;;;4972497;23;45338;-74
2023/04/28 11:21:12;;;;;;;;;;;23.00;48.20;;;;;;4959393;28;45219;-72
2023/04/28 11:23:38;;;;;;;;;;;23.00;48.30;;;;;;4967963;28;45217;-73
2023/04/28 11:26:04;;;;;;;;;;;22.90;48.20;;;;;;4961748;28;45180;-72
2023/04/28 11:28:29;;;;;;;;;;;22.90;48.30;;;;;;4987849;28;45498;-73
2023/04/28 11:31:10;;;;;;;;;;;22.80;48.30;;;;;;4966339;28;45242;-73
2023/04/28 11:33:37;;;;;;;;;;;22.80;48.70;;;;;;4965682;28;45316;-74
2023/04/28 11:36:03;;;;;;;;;;;22.80;48.50;;;;;;4955981;28;45246;-74
2023/04/28 11:38:28;;;;;;;;;;;22.80;48.50;;;;;;4980178;28;45020;-73
2023/04/28 11:40:57;;;;;;;;;;;22.70;48.50;;;;;;4940744;28;45290;-72
2023/04/28 11:43:29;;;;;;;;;;;22.70;48.50;;;;;;4967497;28;45247;-73
2023/04/28 11:45:56;;;;;;;;;;;22.70;48.60;;;;;;4944051;28;45405;-74
2023/04/28 11:48:21;;;;;;;;;;;22.60;48.60;;;;;;4947938;28;45624;-74
2023/04/28 11:50:47;;;;;;;;;;;22.60;48.70;;;;;;4954633;28;45664;-74
2023/04/28 11:53:13;;;;;;;;;;;22.60;48.80;;;;;;4945791;28;46061;-73
2023/04/28 11:55:39;;;;;;;;;;;22.50;48.80;;;;;;4974487;28;45454;-72
2023/04/28 11:58:17;;;;;;;;;;;22.50;48.80;;;;;;4964724;28;45255;-73
2023/04/28 12:00:43;;;;;;;;;;;22.50;48.90;;;;;;4953009;28;45114;-72
2023/04/28 12:03:09;;;;;;;;;;;22.50;48.90;;;;;;4978327;28;45897;-72
2023/04/28 12:05:43;;;;;;;;;;;22.40;49.00;;;;;;4974899;28;45641;-73
2023/04/28 12:08:08;;;;;;;;;;;22.40;49.00;;;;;;4969973;28;44798;-73
2023/04/28 12:10:34;;;;;;;;;;;22.40;49.10;;;;;;4956060;28;45334;-73
2023/04/28 12:13:13;;;;;;;;;;;22.30;49.10;;;;;;4983416;28;45111;-73
2023/04/28 12:15:42;;;;;;;;;;;22.30;49.10;;;;;;4958247;28;45405;-70
2023/04/28 12:18:08;;;;;;;;;;;22.30;49.20;;;;;;4947553;28;45248;-70
2023/04/28 12:20:34;;;;;;;;;;;22.20;49.20;;;;;;4943871;28;44614;-70
2023/04/28 12:23:01;;;;;;;;;;;22.20;49.30;;;;;;4964324;28;45171;-70
2023/04/28 12:25:27;;;;;;;;;;;22.20;49.30;;;;;;4956328;28;45347;-70
2023/04/28 12:28:02;;;;;;;;;;;22.20;49.40;;;;;;4951749;28;45172;-70
2023/04/28 12:30:28;;;;;;;;;;;22.20;49.40;;;;;;4958157;28;45380;-69
2023/04/28 12:32:54;;;;;;;;;;;22.10;49.40;;;;;;4947339;28;46052;-71
2023/04/28 12:35:21;;;;;;;;;;;22.10;49.40;;;;;;4971596;28;44732;-72
2023/04/28 12:37:46;;;;;;;;;;;22.10;49.40;;;;;;4977930;28;45195;-70
2023/04/28 12:40:13;;;;;;;;;;;22.10;49.50;;;;;;4971970;28;45247;-70
2023/04/28 12:42:39;;;;;;;;;;;22.10;49.50;;;;;;4960895;28;44883;-70
2023/04/28 12:45:08;;;;;;;;;;;22.00;49.50;;;;;;4961794;28;45919;-69
2023/04/28 12:47:38;;;;;;;;;;;22.00;49.50;;;;;;4927866;28;44698;-71
2023/04/28 12:50:07;;;;;;;;;;;22.00;49.50;;;;;;4978357;28;45348;-69
2023/04/28 12:52:34;;;;;;;;;;;22.00;49.50;;;;;;4966520;28;45226;-70
2023/04/28 12:55:01;;;;;;;;;;;22.00;49.60;;;;;;4982756;28;45215;-68
2023/04/28 12:57:27;;;;;;;;;;;21.90;49.60;;;;;;4938659;28;45453;-69
2023/04/28 12:59:54;;;;;;;;;;;21.90;49.60;;;;;;4980993;28;44707;-70
2023/04/28 13:02:20;;;;;;;;;;;21.90;49.70;;;;;;4971878;28;45594;-74
2023/04/28 13:04:46;;;;;;;;;;;21.90;49.70;;;;;;4983406;28;45230;-74
2023/04/28 13:07:12;;;;;;;;;;;21.90;49.70;;;;;;4956236;28;45140;-74
2023/04/28 13:09:38;;;;;;;;;;;21.80;49.80;;;;;;4966028;28;45402;-74
2023/04/28 13:12:03;;;;;;;;;;;21.80;49.80;;;;;;4959953;28;46000;-72
2023/04/28 13:14:31;;;;;;;;;;;21.80;49.80;;;;;;4974080;28;45208;-70
2023/04/28 13:17:00;;;;;;;;;;;21.80;49.80;;;;;;4951607;28;44689;-69
2023/04/28 13:19:26;;;;;;;;;;;21.80;49.80;;;;;;4958255;28;46040;-69
2023/04/28 13:21:52;;;;;;;;;;;21.80;49.80;;;;;;4970371;28;45452;-70
2023/04/28 13:24:18;;;;;;;;;;;21.70;49.70;;;;;;4963773;28;45243;-69
2023/04/28 13:26:44;;;;;;;;;;;21.70;49.80;;;;;;4925430;28;45246;-70
2023/04/28 13:29:10;;;;;;;;;;;21.70;49.80;;;;;;4965644;28;45644;-69
2023/04/28 13:31:35;;;;;;;;;;;21.70;49.90;;;;;;4951340;28;46535;-69
2023/04/28 13:34:02;;;;;;;;;;;21.70;49.90;;;;;;4960781;28;44743;-69
2023/04/28 13:36:28;;;;;;;;;;;21.70;49.90;;;;;;4955490;28;45196;-69
2023/04/28 13:38:54;;;;;;;;;;;21.70;49.80;;;;;;4975100;28;45235;-68
2023/04/28 13:41:20;;;;;;;;;;;21.60;49.80;;;;;;4956947;28;45659;-68
2023/04/28 13:43:45;;;;;;;;;;;21.60;49.90;;;;;;4968356;28;45478;-68
2023/04/28 13:46:11;;;;;;;;;;;21.60;49.80;;;;;;4962445;28;45456;-68
2023/04/28 13:48:36;;;;;;;;;;;21.60;49.90;;;;;;4971673;28;45873;-68
2023/04/28 13:51:02;;;;;;;;;;;21.60;49.90;;;;;;4960540;28;46115;-68
2023/04/28 13:53:28;;;;;;;;;;;21.60;49.90;;;;;;4950428;28;45355;-68
2023/04/28 13:55:56;;;;;;;;;;;21.60;49.90;;;;;;4971473;28;45089;-68
2023/04/28 13:58:25;;;;;;;;;;;21.50;49.90;;;;;;4973864;28;45833;-68
2023/04/28 14:00:51;;;;;;;;;;;21.50;49.90;;;;;;4954217;28;45441;-68
2023/04/28 14:03:16;;;;;;;;;;;21.50;50.00;;;;;;4971155;28;45289;-68
2023/04/28 14:05:43;;;;;;;;;;;21.50;50.00;;;;;;4959652;28;45350;-68
2023/04/28 14:08:09;;;;;;;;;;;21.50;50.00;;;;;;4928583;28;45351;-68
2023/04/28 14:10:34;;;;;;;;;;;21.50;50.00;;;;;;4937168;28;47838;-68
2023/04/28 14:13:00;;;;;;;;;;;21.50;50.00;;;;;;4965707;28;45246;-68
2023/04/28 14:15:25;;;;;;;;;;;21.50;50.00;;;;;;4960525;28;45246;-68
2023/04/28 14:17:51;;;;;;;;;;;21.50;50.00;;;;;;4974299;28;45107;-68
2023/04/28 14:20:16;;;;;;;;;;;21.50;50.00;;;;;;4967808;28;45086;-68
2023/04/28 14:22:42;;;;;;;;;;;21.50;50.00;;;;;;4967026;28;44927;-68
2023/04/28 14:25:08;;;;;;;;;;;21.40;50.00;;;;;;4973587;28;45284;-68
2023/04/28 14:27:33;;;;;;;;;;;21.40;50.00;;;;;;4951609;28;45386;-69
2023/04/28 14:29:59;;;;;;;;;;;21.40;50.00;;;;;;4977857;28;45315;-68
2023/04/28 14:32:25;;;;;;;;;;;21.40;50.10;;;;;;4932660;28;45265;-68
2023/04/28 14:34:50;;;;;;;;;;;21.40;50.10;;;;;;4975308;28;45336;-68
2023/04/28 14:37:16;;;;;;;;;;;21.40;50.10;;;;;;4967358;28;45402;-69
2023/04/28 14:39:42;;;;;;;;;;;21.40;50.10;;;;;;4967477;28;45622;-69
2023/04/28 14:42:07;;;;;;;;;;;21.40;50.10;;;;;;4971832;28;45250;-69
2023/04/28 14:44:34;;;;;;;;;;;21.30;50.10;;;;;;4943619;28;45291;-69
2023/04/28 14:47:00;;;;;;;;;;;21.30;50.10;;;;;;4953673;28;45539;-72
2023/04/28 14:49:26;;;;;;;;;;;21.30;50.10;;;;;;4959874;28;45216;-72
2023/04/28 14:51:52;;;;;;;;;;;21.30;50.10;;;;;;4961961;28;45521;-72
2023/04/28 14:54:18;;;;;;;;;;;21.30;50.20;;;;;;4980907;28;45302;-73
2023/04/28 14:56:44;;;;;;;;;;;21.30;50.20;;;;;;4974563;28;45079;-73
2023/04/28 14:59:10;;;;;;;;;;;21.20;50.10;;;;;;4967436;28;45243;-73
2023/04/28 15:01:35;;;;;;;;;;;21.20;50.10;;;;;;4938920;28;45155;-74
2023/04/28 15:04:01;;;;;;;;;;;21.20;50.20;;;;;;4965162;28;44701;-74
2023/04/28 15:06:27;;;;;;;;;;;21.20;50.20;;;;;;4954368;28;45169;-73
2023/04/28 15:08:52;;;;;;;;;;;21.20;50.20;;;;;;4967098;28;45113;-74
2023/04/28 15:11:18;;;;;;;;;;;21.20;50.20;;;;;;4968708;28;45399;-74
2023/04/28 15:13:43;;;;;;;;;;;21.20;50.20;;;;;;4976020;28;45342;-69
2023/04/28 15:16:09;;;;;;;;;;;21.20;50.30;;;;;;4965225;28;45327;-72
2023/04/28 15:18:34;;;;;;;;;;;21.10;50.20;;;;;;4980797;28;46066;-72
2023/04/28 15:21:00;;;;;;;;;;;21.10;50.20;;;;;;4979110;28;45370;-72
2023/04/28 15:23:26;;;;;;;;;;;21.10;50.30;;;;;;4968453;28;45302;-70
2023/04/28 15:25:52;;;;;;;;;;;21.10;50.30;;;;;;4959494;28;46253;-70
2023/04/28 15:28:18;;;;;;;;;;;21.10;50.30;;;;;;4986395;28;45073;-71
2023/04/28 15:30:44;;;;;;;;;;;21.10;50.30;;;;;;4957450;28;45287;-70
2023/04/28 15:33:15;;;;;;;;;;;21.10;50.30;;;;;;4984697;28;45180;-70
2023/04/28 15:35:42;;;;;;;;;;;21.10;50.30;;;;;;4955941;28;45627;-72
2023/04/28 15:38:08;;;;;;;;;;;21.10;50.40;;;;;;4962637;28;45170;-72
2023/04/28 15:40:33;;;;;;;;;;;21.10;50.30;;;;;;4975536;28;45580;-72
2023/04/28 15:42:59;;;;;;;;;;;21.10;50.30;;;;;;4933800;28;45511;-72
2023/04/28 15:45:24;;;;;;;;;;;21.10;50.30;;;;;;4976105;28;45297;-73
2023/04/28 15:47:50;;;;;;;;;;;21.10;50.30;;;;;;4981356;28;45577;-73
2023/04/28 15:50:16;;;;;;;;;;;21.00;50.30;;;;;;4977073;28;45482;-72
2023/04/28 15:52:45;;;;;;;;;;;21.00;50.40;;;;;;4967183;28;45297;-73
2023/04/28 15:55:11;;;;;;;;;;;21.00;50.40;;;;;;4957066;28;45454;-73
2023/04/28 15:57:37;;;;;;;;;;;21.00;50.40;;;;;;4960829;28;45597;-73
2023/04/28 16:00:10;;;;;;;;;;;21.00;50.40;;;;;;4970226;28;44705;-73
2023/04/28 16:02:36;;;;;;;;;;;21.00;50.40;;;;;;4922617;28;45412;-72
2023/04/28 16:05:05;;;;;;;;;;;21.00;50.50;;;;;;4964712;28;45001;-71
2023/04/28 16:07:36;;;;;;;;;;;21.00;50.50;;;;;;4951331;28;45472;-72
2023/04/28 16:10:06;;;;;;;;;;;21.00;50.50;;;;;;4966903;28;45704;-72
2023/04/28 16:12:32;;;;;;;;;;;20.90;50.40;;;;;;4951316;28;45556;-71
2023/04/28 16:14:58;;;;;;;;;;;20.90;50.50;;;;;;4990820;28;45200;-70
2023/04/28 16:17:24;;;;;;;;;;;20.90;50.50;;;;;;4948711;28;47098;-72
2023/04/28 16:19:49;;;;;;;;;;;20.90;50.50;;;;;;4973649;28;45308;-70
2023/04/28 16:22:15;;;;;;;;;;;20.90;51.10;;;;;;4969011;28;45344;-71
2023/04/28 16:24:43;;;;;;;;;;;20.90;50.60;;;;;;4945862;28;45037;-69
2023/04/28 16:27:09;;;;;;;;;;;20.80;50.50;;;;;;4959503;28;45547;-69
2023/04/28 16:29:35;;;;;;;;;;;20.80;50.50;;;;;;4982832;28;45273;-69
2023/04/28 16:32:01;;;;;;;;;;;20.80;50.50;;;;;;4972536;28;45253;-69
2023/04/28 16:34:26;;;;;;;;;;;20.80;50.50;;;;;;4978040;28;45401;-68
2023/04/28 16:36:51;;;;;;;;;;;20.80;50.60;;;;;;4974681;28;45486;-67
2023/04/28 16:39:17;;;;;;;;;;;20.80;50.60;;;;;;4933503;28;45323;-68
2023/04/28 16:41:42;;;;;;;;;;;20.80;50.60;;;;;;4963036;28;45009;-68
2023/04/28 16:44:08;;;;;;;;;;;20.80;50.60;;;;;;4968903;28;45273;-67
2023/04/28 16:46:34;;;;;;;;;;;20.80;50.60;;;;;;4967942;28;45878;-69
2023/04/28 16:48:59;;;;;;;;;;;20.80;50.60;;;;;;4968232;28;45227;-69
2023/04/28 16:51:26;;;;;;;;;;;20.80;50.60;;;;;;4959215;28;45168;-69
2023/04/28 16:53:52;;;;;;;;;;;20.80;50.60;;;;;;4979990;28;45441;-68
2023/04/28 16:56:18;;;;;;;;;;;20.80;50.70;;;;;;4970688;28;45198;-68
2023/04/28 16:58:43;;;;;;;;;;;20.70;50.60;;;;;;4975394;28;45713;-68
2023/04/28 17:01:09;;;;;;;;;;;20.80;50.70;;;;;;4956081;28;45361;-69
2023/04/28 17:03:39;;;;;;;;;;;20.70;50.60;;;;;;4982192;28;45520;-69
2023/04/28 17:06:05;;;;;;;;;;;20.70;50.70;;;;;;4961121;28;45803;-69